createdAt,value
2017-12-24T00:00:27.412Z,9.20
2017-12-24T00:02:54.848Z,9.30
2017-12-24T00:05:22.279Z,9.30
2017-12-24T00:07:49.699Z,9.30
2017-12-24T00:10:17.887Z,9.30
2017-12-24T00:12:45.322Z,9.30
2017-12-24T00:15:12.764Z,9.40
2017-12-24T00:17:40.193Z,9.40
2017-12-24T00:20:07.632Z,9.40
2017-12-24T00:22:35.051Z,9.40
2017-12-24T00:25:03.241Z,9.20
2017-12-24T00:27:30.672Z,9.20
2017-12-24T00:29:58.097Z,9.30
2017-12-24T00:32:25.553Z,9.30
2017-12-24T00:34:52.971Z,9.30
2017-12-24T00:37:20.390Z,9.30
2017-12-24T00:39:47.825Z,9.40
2017-12-24T00:42:15.249Z,9.30
2017-12-24T00:44:42.684Z,9.40
2017-12-24T00:47:10.108Z,9.40
2017-12-24T00:49:37.550Z,9.30
2017-12-24T00:52:04.976Z,9.30
2017-12-24T00:54:32.411Z,9.40
2017-12-24T00:57:00.595Z,9.30
2017-12-24T00:59:28.028Z,9.30
2017-12-24T01:01:55.461Z,9.40
2017-12-24T01:04:22.892Z,9.40
2017-12-24T01:06:50.333Z,9.30
2017-12-24T01:09:18.507Z,9.40
2017-12-24T01:11:45.923Z,9.30
2017-12-24T01:14:13.364Z,9.40
2017-12-24T01:16:40.793Z,9.40
2017-12-24T01:19:08.214Z,9.30
2017-12-24T01:21:36.409Z,9.20
2017-12-24T01:24:03.836Z,9.20
2017-12-24T01:26:32.032Z,9.20
2017-12-24T01:28:59.468Z,9.10
2017-12-24T01:31:27.662Z,9.10
2017-12-24T01:33:55.088Z,9.10
2017-12-24T01:36:22.547Z,9.10
2017-12-24T01:38:49.996Z,9.10
2017-12-24T01:41:17.432Z,9.20
2017-12-24T01:43:44.851Z,9.20
2017-12-24T01:46:12.290Z,9.20
2017-12-24T01:48:44.441Z,9.10
2017-12-24T01:51:11.886Z,9.10
2017-12-24T01:53:39.325Z,9.10
2017-12-24T01:56:06.760Z,9.10
2017-12-24T01:58:34.187Z,9.00
2017-12-24T02:01:02.398Z,9.10
2017-12-24T02:03:29.807Z,9.00
2017-12-24T02:05:58.007Z,9.10
2017-12-24T02:08:25.440Z,9.10
2017-12-24T02:10:52.863Z,9.20
2017-12-24T02:13:20.292Z,9.10
2017-12-24T02:15:47.725Z,9.10
2017-12-24T02:18:15.932Z,9.10
2017-12-24T02:20:43.363Z,9.10
2017-12-24T02:23:10.779Z,9.10
2017-12-24T02:25:38.204Z,9.10
2017-12-24T02:28:23.783Z,9.10
2017-12-24T02:30:51.211Z,9.10
2017-12-24T02:33:18.640Z,9.00
2017-12-24T02:35:46.068Z,9.00
2017-12-24T02:38:13.507Z,9.00
2017-12-24T02:40:40.934Z,9.00
2017-12-24T02:43:09.125Z,9.10
2017-12-24T02:45:36.542Z,9.00
2017-12-24T02:48:03.976Z,9.10
2017-12-24T02:50:31.432Z,9.00
2017-12-24T02:52:58.893Z,9.00
2017-12-24T02:55:26.327Z,9.00
2017-12-24T02:57:53.770Z,9.10
2017-12-24T03:00:21.202Z,9.00
2017-12-24T03:02:49.423Z,9.10
2017-12-24T03:05:16.882Z,9.00
2017-12-24T03:07:44.320Z,9.00
2017-12-24T03:10:11.755Z,9.00
2017-12-24T03:12:39.972Z,9.10
2017-12-24T03:15:07.422Z,9.10
2017-12-24T03:17:34.871Z,9.10
2017-12-24T03:20:02.311Z,9.10
2017-12-24T03:22:29.749Z,9.20
2017-12-24T03:24:57.962Z,9.20
2017-12-24T03:27:25.418Z,9.10
2017-12-24T03:29:52.836Z,9.10
2017-12-24T03:32:21.028Z,9.10
2017-12-24T03:34:48.452Z,9.10
2017-12-24T03:37:15.883Z,9.10
2017-12-24T03:39:43.313Z,9.10
2017-12-24T03:42:10.748Z,9.10
2017-12-24T03:44:38.182Z,9.10
2017-12-24T03:47:05.597Z,9.10
2017-12-24T03:49:33.020Z,9.00
2017-12-24T03:52:00.435Z,9.10
2017-12-24T03:54:27.860Z,9.10
2017-12-24T03:56:55.295Z,9.10
2017-12-24T03:59:22.731Z,9.10
2017-12-24T04:01:50.929Z,9.10
2017-12-24T04:04:18.368Z,9.10
2017-12-24T04:06:46.564Z,9.10
2017-12-24T04:09:14.005Z,9.00
2017-12-24T04:11:42.182Z,9.10
2017-12-24T04:14:09.608Z,9.10
2017-12-24T04:16:37.040Z,9.10
2017-12-24T04:19:04.483Z,9.10
2017-12-24T04:21:31.911Z,9.10
2017-12-24T04:23:59.328Z,9.10
2017-12-24T04:26:26.752Z,9.20
2017-12-24T04:28:54.188Z,9.10
2017-12-24T04:31:21.611Z,9.10
2017-12-24T04:33:49.042Z,9.00
2017-12-24T04:36:16.476Z,9.10
2017-12-24T04:38:43.901Z,9.10
2017-12-24T04:41:11.340Z,9.10
2017-12-24T04:43:38.756Z,9.10
2017-12-24T04:46:06.198Z,9.10
2017-12-24T04:48:33.624Z,9.00
2017-12-24T04:51:01.836Z,8.90
2017-12-24T04:53:29.251Z,8.90
2017-12-24T04:55:57.435Z,9.00
2017-12-24T04:58:24.859Z,8.90
2017-12-24T05:00:52.291Z,9.00
2017-12-24T05:03:19.715Z,9.00
2017-12-24T05:05:47.139Z,9.00
2017-12-24T05:08:14.559Z,9.00
2017-12-24T05:10:41.987Z,9.00
2017-12-24T05:13:09.432Z,9.00
2017-12-24T05:15:36.899Z,9.00
2017-12-24T05:18:04.328Z,9.00
2017-12-24T05:20:32.516Z,9.00
2017-12-24T05:23:00.707Z,9.00
2017-12-24T05:25:28.150Z,9.00
2017-12-24T05:27:56.339Z,9.00
2017-12-24T05:30:23.759Z,9.00
2017-12-24T05:32:51.193Z,9.00
2017-12-24T05:35:18.662Z,9.00
2017-12-24T05:37:46.092Z,8.90
2017-12-24T05:40:13.530Z,9.00
2017-12-24T05:42:40.987Z,9.00
2017-12-24T05:45:08.411Z,9.00
2017-12-24T05:47:36.623Z,9.00
2017-12-24T05:50:04.052Z,8.90
2017-12-24T05:52:32.245Z,8.90
2017-12-24T05:54:59.668Z,8.90
2017-12-24T05:57:27.107Z,8.90
2017-12-24T05:59:54.540Z,8.90
2017-12-24T06:02:23.018Z,8.90
2017-12-24T06:04:50.448Z,8.90
2017-12-24T06:07:17.867Z,8.90
2017-12-24T06:09:45.299Z,9.00
2017-12-24T06:12:12.760Z,8.90
2017-12-24T06:14:40.184Z,8.90
2017-12-24T06:17:07.607Z,9.00
2017-12-24T06:19:35.812Z,8.90
2017-12-24T06:22:03.226Z,8.90
2017-12-24T06:24:30.660Z,8.90
2017-12-24T06:26:58.090Z,9.00
2017-12-24T06:29:25.521Z,9.00
2017-12-24T06:31:52.943Z,9.00
2017-12-24T06:34:20.368Z,9.00
2017-12-24T06:36:47.865Z,9.00
2017-12-24T06:39:15.291Z,9.00
2017-12-24T06:41:42.733Z,9.00
2017-12-24T06:44:10.155Z,9.00
2017-12-24T06:46:38.363Z,9.00
2017-12-24T06:49:05.777Z,9.00
2017-12-24T06:51:33.975Z,9.10
2017-12-24T06:54:01.397Z,9.10
2017-12-24T06:56:28.817Z,9.10
2017-12-24T06:58:56.239Z,9.00
2017-12-24T07:01:24.443Z,9.00
2017-12-24T07:03:51.862Z,9.00
2017-12-24T07:06:19.298Z,9.00
2017-12-24T07:08:46.737Z,9.00
2017-12-24T07:11:18.933Z,9.00
2017-12-24T07:13:46.348Z,9.00
2017-12-24T07:16:13.776Z,9.00
2017-12-24T07:18:41.195Z,9.00
2017-12-24T07:21:08.625Z,9.00
2017-12-24T07:23:36.054Z,9.10
2017-12-24T07:26:03.484Z,9.10
2017-12-24T07:28:30.896Z,9.10
2017-12-24T07:30:58.324Z,9.10
2017-12-24T07:33:25.768Z,9.00
2017-12-24T07:35:53.185Z,9.00
2017-12-24T07:38:20.612Z,9.00
2017-12-24T07:40:48.054Z,9.00
2017-12-24T07:43:15.484Z,9.00
2017-12-24T07:45:42.902Z,9.00
2017-12-24T07:48:10.336Z,9.00
2017-12-24T07:50:37.776Z,9.10
2017-12-24T07:53:05.799Z,9.00
2017-12-24T07:55:35.676Z,9.00
2017-12-24T07:58:03.097Z,9.00
2017-12-24T08:00:31.286Z,9.00
2017-12-24T08:02:58.739Z,9.00
2017-12-24T08:05:26.176Z,9.10
2017-12-24T08:07:54.358Z,9.10
2017-12-24T08:10:22.611Z,9.10
2017-12-24T08:12:50.028Z,9.10
2017-12-24T08:15:17.474Z,9.10
2017-12-24T08:17:44.891Z,9.10
2017-12-24T08:20:13.091Z,9.20
2017-12-24T08:22:40.499Z,9.10
2017-12-24T08:25:07.926Z,9.20
2017-12-24T08:27:35.351Z,9.20
2017-12-24T08:30:02.891Z,9.20
2017-12-24T08:32:40.343Z,9.20
2017-12-24T08:35:15.282Z,9.20
2017-12-24T08:37:42.764Z,9.20
2017-12-24T08:40:10.225Z,9.20
2017-12-24T08:42:40.955Z,9.30
2017-12-24T08:45:08.402Z,9.30
2017-12-24T08:47:35.828Z,9.30
2017-12-24T08:50:03.337Z,9.30
2017-12-24T08:52:31.527Z,9.40
2017-12-24T08:54:58.955Z,9.40
2017-12-24T08:57:26.374Z,9.40
2017-12-24T08:59:53.795Z,9.40
2017-12-24T09:02:22.103Z,9.40
2017-12-24T09:04:49.568Z,9.40
2017-12-24T09:07:16.994Z,9.40
2017-12-24T09:09:48.009Z,9.40
2017-12-24T09:12:15.423Z,9.40
2017-12-24T09:14:44.432Z,9.40
2017-12-24T09:17:12.040Z,9.40
2017-12-24T09:19:40.227Z,9.40
2017-12-24T09:22:12.430Z,9.40
2017-12-24T09:24:39.952Z,9.40
2017-12-24T09:27:07.390Z,9.40
2017-12-24T09:29:34.811Z,9.40
2017-12-24T09:32:02.508Z,9.50
2017-12-24T09:34:30.778Z,9.50
2017-12-24T09:37:02.315Z,9.50
2017-12-24T09:39:29.782Z,9.50
2017-12-24T09:41:57.204Z,9.50
2017-12-24T09:44:24.691Z,9.50
2017-12-24T09:46:52.271Z,9.50
2017-12-24T09:49:20.536Z,9.50
2017-12-24T09:51:48.818Z,9.50
2017-12-24T09:54:16.485Z,9.50
2017-12-24T09:56:44.684Z,9.50
2017-12-24T09:59:16.151Z,9.50
2017-12-24T10:01:44.060Z,9.50
2017-12-24T10:04:11.675Z,9.50
2017-12-24T10:06:39.210Z,9.50
2017-12-24T10:09:07.421Z,9.50
2017-12-24T10:11:34.833Z,9.50
2017-12-24T10:14:03.116Z,9.60
2017-12-24T10:16:31.310Z,9.60
2017-12-24T10:18:58.736Z,9.50
2017-12-24T10:21:26.932Z,9.50
2017-12-24T10:23:55.374Z,9.50
2017-12-24T10:26:22.801Z,9.50
2017-12-24T10:28:51.004Z,9.50
2017-12-24T10:31:18.447Z,9.50
2017-12-24T10:33:45.920Z,9.50
2017-12-24T10:36:13.356Z,9.60
2017-12-24T10:38:40.935Z,9.60
2017-12-24T10:41:08.388Z,9.60
2017-12-24T10:43:35.816Z,9.50
2017-12-24T10:46:03.241Z,9.50
2017-12-24T10:48:37.423Z,9.50
2017-12-24T10:51:04.855Z,9.50
2017-12-24T10:53:32.289Z,9.50
2017-12-24T10:55:59.742Z,9.50
2017-12-24T10:58:27.184Z,9.50
2017-12-24T11:00:55.343Z,9.60
2017-12-24T11:03:23.548Z,9.60
2017-12-24T11:05:50.981Z,9.60
2017-12-24T11:08:18.419Z,9.60
2017-12-24T11:10:45.831Z,9.60
2017-12-24T11:13:13.268Z,9.60
2017-12-24T11:15:40.688Z,9.60
2017-12-24T11:18:08.115Z,9.70
2017-12-24T11:20:35.543Z,9.60
2017-12-24T11:23:02.981Z,9.60
2017-12-24T11:25:31.207Z,9.60
2017-12-24T11:27:58.644Z,9.60
2017-12-24T11:30:26.063Z,9.60
2017-12-24T11:32:54.267Z,9.70
2017-12-24T11:35:22.699Z,9.60
2017-12-24T11:37:50.153Z,9.60
2017-12-24T11:40:17.590Z,9.60
2017-12-24T11:42:45.072Z,9.60
2017-12-24T11:45:17.308Z,9.60
2017-12-24T11:47:44.729Z,9.70
2017-12-24T11:50:18.272Z,9.60
2017-12-24T11:52:45.747Z,9.60
2017-12-24T11:55:13.214Z,9.60
2017-12-24T11:57:40.634Z,9.70
2017-12-24T12:00:11.283Z,9.70
2017-12-24T12:02:38.706Z,9.70
2017-12-24T12:05:10.113Z,9.60
2017-12-24T12:07:38.486Z,9.60
2017-12-24T12:10:05.939Z,9.60
2017-12-24T12:12:33.363Z,9.70
2017-12-24T12:15:00.799Z,9.60
2017-12-24T12:17:28.219Z,9.70
2017-12-24T12:19:57.620Z,9.70
2017-12-24T12:22:25.121Z,9.70
2017-12-24T12:24:52.523Z,9.70
2017-12-24T12:27:21.003Z,9.70
2017-12-24T12:29:48.471Z,9.80
2017-12-24T12:32:15.928Z,9.70
2017-12-24T12:34:44.121Z,9.70
2017-12-24T12:37:12.340Z,9.70
2017-12-24T12:39:39.836Z,9.70
2017-12-24T12:42:07.328Z,9.80
2017-12-24T12:44:34.743Z,9.80
2017-12-24T12:47:02.162Z,9.80
2017-12-24T12:49:29.666Z,9.80
2017-12-24T12:51:57.107Z,9.90
2017-12-24T12:54:24.536Z,9.90
2017-12-24T12:56:51.964Z,9.80
2017-12-24T12:59:19.400Z,9.80
2017-12-24T13:01:47.593Z,9.80
2017-12-24T13:04:15.016Z,9.80
2017-12-24T13:06:42.475Z,9.80
2017-12-24T13:09:09.900Z,9.90
2017-12-24T13:11:37.321Z,9.90
2017-12-24T13:14:04.747Z,9.90
2017-12-24T13:16:32.166Z,9.90
2017-12-24T13:18:59.610Z,9.90
2017-12-24T13:21:27.028Z,9.80
2017-12-24T13:23:55.219Z,9.80
2017-12-24T13:26:22.643Z,9.80
2017-12-24T13:28:50.075Z,9.80
2017-12-24T13:31:17.500Z,9.70
2017-12-24T13:33:44.928Z,9.70
2017-12-24T13:36:13.116Z,9.70
2017-12-24T13:38:41.371Z,9.70
2017-12-24T13:41:08.801Z,9.70
2017-12-24T13:43:36.296Z,9.70
2017-12-24T13:46:04.487Z,9.70
2017-12-24T13:48:32.951Z,9.70
2017-12-24T13:51:01.216Z,9.70
2017-12-24T13:53:28.668Z,9.70
2017-12-24T13:55:56.131Z,9.80
2017-12-24T13:58:23.552Z,9.70
2017-12-24T14:00:50.979Z,9.70
2017-12-24T14:03:18.420Z,9.70
2017-12-24T14:05:46.621Z,9.60
2017-12-24T14:08:14.059Z,9.60
2017-12-24T14:10:41.487Z,9.60
2017-12-24T14:13:08.898Z,9.60
2017-12-24T14:15:36.327Z,9.60
2017-12-24T14:18:03.861Z,9.60
2017-12-24T14:20:31.272Z,9.60
2017-12-24T14:22:58.691Z,9.50
2017-12-24T14:25:26.883Z,9.60
2017-12-24T14:27:54.298Z,9.60
2017-12-24T14:30:21.731Z,9.60
2017-12-24T14:32:49.264Z,9.60
2017-12-24T14:35:16.647Z,9.60
2017-12-24T14:37:44.083Z,9.60
2017-12-24T14:40:11.507Z,9.50
2017-12-24T14:42:39.710Z,9.50
2017-12-24T14:45:07.119Z,9.50
2017-12-24T14:47:34.547Z,9.50
2017-12-24T14:50:02.015Z,9.50
2017-12-24T14:52:29.441Z,9.60
2017-12-24T14:54:56.851Z,9.50
2017-12-24T14:57:25.043Z,9.50
2017-12-24T14:59:53.233Z,9.50
2017-12-24T15:02:20.679Z,9.40
2017-12-24T15:04:48.859Z,9.50
2017-12-24T15:07:16.295Z,9.40
2017-12-24T15:09:43.704Z,9.50
2017-12-24T15:12:11.135Z,9.40
2017-12-24T15:14:38.547Z,9.40
2017-12-24T15:17:05.976Z,9.40
2017-12-24T15:19:33.399Z,9.40
2017-12-24T15:22:00.830Z,9.50
2017-12-24T15:24:28.251Z,9.40
2017-12-24T15:26:55.688Z,9.50
2017-12-24T15:29:23.108Z,9.40
2017-12-24T15:31:51.300Z,9.30
2017-12-24T15:34:18.719Z,9.30
2017-12-24T15:36:46.141Z,9.30
2017-12-24T15:39:13.572Z,9.30
2017-12-24T15:41:40.991Z,9.30
2017-12-24T15:44:08.407Z,9.30
2017-12-24T15:46:35.841Z,9.30
2017-12-24T15:49:04.028Z,9.30
2017-12-24T15:51:31.456Z,9.30
2017-12-24T15:53:59.652Z,9.30
2017-12-24T15:56:27.075Z,9.30
2017-12-24T15:58:54.508Z,9.30
2017-12-24T16:01:21.930Z,9.30
2017-12-24T16:03:49.351Z,9.30
2017-12-24T16:06:17.531Z,9.30
2017-12-24T16:08:45.715Z,9.30
2017-12-24T16:11:13.137Z,9.30
2017-12-24T16:13:40.603Z,9.30
2017-12-24T16:16:08.028Z,9.30
2017-12-24T16:18:35.460Z,9.30
2017-12-24T16:21:02.869Z,9.30
2017-12-24T16:23:30.286Z,9.30
2017-12-24T16:25:57.715Z,9.30
2017-12-24T16:28:25.139Z,9.30
2017-12-24T16:30:52.554Z,9.30
2017-12-24T16:33:19.983Z,9.30
2017-12-24T16:35:47.395Z,9.30
2017-12-24T16:38:14.828Z,9.40
2017-12-24T16:40:42.252Z,9.40
2017-12-24T16:43:09.667Z,9.30
2017-12-24T16:45:37.120Z,9.40
2017-12-24T16:48:04.546Z,9.30
2017-12-24T16:50:31.963Z,9.30
2017-12-24T16:53:00.150Z,9.30
2017-12-24T16:55:27.577Z,9.30
2017-12-24T16:57:55.006Z,9.30
2017-12-24T17:00:22.424Z,9.30
2017-12-24T17:02:49.852Z,9.20
2017-12-24T17:05:17.284Z,9.20
2017-12-24T17:07:44.715Z,9.20
2017-12-24T17:10:12.148Z,9.20
2017-12-24T17:12:39.573Z,9.20
2017-12-24T17:15:07.024Z,9.10
2017-12-24T17:17:34.448Z,9.00
2017-12-24T17:20:01.875Z,9.00
2017-12-24T17:22:30.088Z,8.90
2017-12-24T17:24:57.495Z,8.90
2017-12-24T17:27:25.683Z,8.90
2017-12-24T17:29:53.117Z,8.90
2017-12-24T17:32:20.535Z,9.00
2017-12-24T17:34:47.964Z,8.90
2017-12-24T17:37:15.387Z,8.90
2017-12-24T17:39:43.578Z,8.80
2017-12-24T17:42:11.772Z,8.90
2017-12-24T17:44:39.200Z,8.80
2017-12-24T17:47:06.624Z,8.90
2017-12-24T17:49:34.099Z,8.90
2017-12-24T17:52:01.505Z,9.00
2017-12-24T17:54:28.923Z,9.00
2017-12-24T17:56:57.109Z,9.00
2017-12-24T17:59:25.301Z,8.90
2017-12-24T18:01:52.710Z,8.90
2017-12-24T18:04:20.136Z,9.00
2017-12-24T18:06:47.559Z,9.00
2017-12-24T18:09:14.975Z,9.00
2017-12-24T18:11:42.408Z,9.00
2017-12-24T18:14:09.832Z,9.00
2017-12-24T18:16:37.243Z,8.90
2017-12-24T18:19:04.676Z,8.90
2017-12-24T18:21:32.099Z,8.80
2017-12-24T18:23:59.515Z,8.90
2017-12-24T18:26:26.952Z,8.90
2017-12-24T18:28:54.371Z,8.90
2017-12-24T18:31:21.791Z,8.90
2017-12-24T18:33:49.211Z,9.00
2017-12-24T18:36:16.631Z,8.90
2017-12-24T18:38:44.823Z,9.00
2017-12-24T18:41:12.240Z,8.90
2017-12-24T18:43:39.665Z,9.00
2017-12-24T18:46:07.088Z,9.00
2017-12-24T18:48:34.507Z,9.10
2017-12-24T18:51:01.918Z,9.10
2017-12-24T18:53:29.347Z,9.00
2017-12-24T18:55:57.534Z,9.00
2017-12-24T18:58:24.951Z,9.00
2017-12-24T19:00:52.362Z,9.00
2017-12-24T19:03:19.795Z,9.00
2017-12-24T19:05:47.985Z,9.00
2017-12-24T19:08:15.410Z,9.00
2017-12-24T19:10:43.591Z,9.00
2017-12-24T19:13:11.787Z,9.00
2017-12-24T19:15:39.208Z,9.00
2017-12-24T19:18:06.636Z,9.10
2017-12-24T19:20:34.874Z,9.10
2017-12-24T19:23:02.304Z,9.10
2017-12-24T19:25:30.489Z,9.00
2017-12-24T19:27:58.694Z,9.00
2017-12-24T19:30:26.123Z,8.90
2017-12-24T19:32:54.302Z,9.00
2017-12-24T19:35:21.727Z,8.90
2017-12-24T19:37:49.139Z,9.00
2017-12-24T19:40:16.572Z,8.90
2017-12-24T19:42:43.995Z,9.00
2017-12-24T19:45:11.442Z,9.00
2017-12-24T19:47:38.835Z,9.00
2017-12-24T19:50:07.039Z,9.00
2017-12-24T19:52:34.455Z,9.00
2017-12-24T19:55:02.650Z,9.00
2017-12-24T19:57:30.067Z,9.00
2017-12-24T19:59:57.498Z,9.00
2017-12-24T20:02:24.927Z,9.00
2017-12-24T20:04:52.344Z,9.00
2017-12-24T20:07:19.787Z,9.10
2017-12-24T20:09:47.215Z,9.10
2017-12-24T20:12:14.635Z,9.00
2017-12-24T20:14:42.820Z,9.00
2017-12-24T20:17:10.235Z,9.00
2017-12-24T20:19:37.667Z,9.10
2017-12-24T20:22:05.094Z,9.10
2017-12-24T20:24:32.515Z,9.10
2017-12-24T20:26:59.926Z,9.10
2017-12-24T20:29:27.349Z,9.20
2017-12-24T20:31:55.536Z,9.20
2017-12-24T20:34:22.955Z,9.10
2017-12-24T20:36:50.386Z,9.20
2017-12-24T20:39:18.567Z,9.20
2017-12-24T20:41:45.998Z,9.20
2017-12-24T20:44:13.418Z,9.10
2017-12-24T20:46:41.608Z,9.10
2017-12-24T20:49:10.047Z,9.10
2017-12-24T20:51:37.475Z,9.10
2017-12-24T20:54:04.908Z,9.10
2017-12-24T20:56:32.337Z,9.10
2017-12-24T20:58:59.751Z,9.20
2017-12-24T21:01:27.189Z,9.20
2017-12-24T21:03:54.657Z,9.20
2017-12-24T21:06:22.076Z,9.20
2017-12-24T21:08:50.258Z,9.20
2017-12-24T21:11:17.685Z,9.20
2017-12-24T21:13:45.103Z,9.20
2017-12-24T21:16:12.528Z,9.20
2017-12-24T21:18:39.944Z,9.20
2017-12-24T21:21:07.372Z,9.10
2017-12-24T21:23:34.787Z,9.00
2017-12-24T21:26:02.972Z,8.90
2017-12-24T21:28:30.391Z,8.90
2017-12-24T21:30:57.814Z,9.00
2017-12-24T21:33:25.249Z,8.90
2017-12-24T21:35:52.661Z,8.90
2017-12-24T21:38:20.083Z,8.90
2017-12-24T21:40:47.502Z,9.00
2017-12-24T21:43:15.699Z,8.80
2017-12-24T21:45:43.115Z,8.80
2017-12-24T21:48:10.539Z,8.80
2017-12-24T21:50:37.959Z,8.80
2017-12-24T21:53:05.389Z,8.80
2017-12-24T21:55:32.808Z,8.80
2017-12-24T21:58:00.332Z,8.80
2017-12-24T22:00:27.743Z,8.90
2017-12-24T22:02:55.170Z,8.90
2017-12-24T22:05:22.582Z,8.90
2017-12-24T22:07:50.785Z,8.90
2017-12-24T22:10:18.202Z,8.90
2017-12-24T22:12:45.623Z,8.90
2017-12-24T22:15:13.060Z,8.90
2017-12-24T22:17:40.487Z,8.80
2017-12-24T22:20:08.674Z,8.90
2017-12-24T22:22:36.099Z,8.80
2017-12-24T22:25:03.613Z,8.80
2017-12-24T22:27:31.003Z,8.90
2017-12-24T22:29:58.435Z,8.80
2017-12-24T22:32:26.623Z,8.90
2017-12-24T22:34:54.067Z,8.90
2017-12-24T22:37:21.458Z,9.00
2017-12-24T22:39:48.883Z,9.00
2017-12-24T22:42:16.366Z,9.00
2017-12-24T22:44:48.524Z,9.00
2017-12-24T22:47:15.939Z,9.00
2017-12-24T22:49:43.358Z,9.00
2017-12-24T22:52:10.782Z,9.00
2017-12-24T22:54:39.296Z,9.00
2017-12-24T22:57:06.755Z,9.00
2017-12-24T22:59:34.188Z,9.10
2017-12-24T23:02:01.617Z,9.10
2017-12-24T23:04:29.045Z,9.10
2017-12-24T23:06:57.254Z,9.00
2017-12-24T23:09:24.751Z,9.00
2017-12-24T23:11:52.179Z,9.00
2017-12-24T23:14:19.618Z,9.00
2017-12-24T23:16:47.030Z,9.00
2017-12-24T23:19:15.219Z,9.00
2017-12-24T23:21:43.413Z,8.90
2017-12-24T23:24:10.826Z,8.90
2017-12-24T23:26:38.251Z,8.90
2017-12-24T23:29:05.676Z,8.90
2017-12-24T23:31:33.094Z,8.90
2017-12-24T23:34:00.507Z,8.90
2017-12-24T23:36:27.940Z,8.90
2017-12-24T23:38:55.355Z,8.90
2017-12-24T23:41:22.787Z,8.80
2017-12-24T23:43:50.213Z,8.80
2017-12-24T23:46:17.636Z,8.80
2017-12-24T23:48:45.061Z,8.80
2017-12-24T23:51:12.479Z,8.80
2017-12-24T23:53:39.901Z,8.80
2017-12-24T23:56:07.331Z,8.80
2017-12-24T23:58:34.750Z,8.90
